createdAt,value
2022-08-22T00:08:28.649Z,18.80
2022-08-22T00:13:43.223Z,18.76
2022-08-22T00:19:25.324Z,18.49
2022-08-22T00:24:46.639Z,18.49
2022-08-22T00:29:55.098Z,18.36
2022-08-22T00:35:02.447Z,18.29
2022-08-22T00:40:41.729Z,18.05
2022-08-22T00:45:58.275Z,18.31
2022-08-22T00:51:09.316Z,17.94
2022-08-22T00:56:38.973Z,17.92
2022-08-22T01:02:01.392Z,18.10
2022-08-22T01:07:03.131Z,17.96
2022-08-22T01:12:34.108Z,17.74
2022-08-22T01:17:57.561Z,17.76
2022-08-22T01:23:15.429Z,17.87
2022-08-22T01:28:35.197Z,17.56
2022-08-22T01:34:14.432Z,17.65
2022-08-22T01:39:34.153Z,17.55
2022-08-22T01:44:53.708Z,17.33
2022-08-22T01:50:03.993Z,17.39
2022-08-22T01:55:21.367Z,17.20
2022-08-22T02:00:35.487Z,17.45
2022-08-22T02:05:51.398Z,17.61
2022-08-22T02:11:07.080Z,17.67
2022-08-22T02:16:19.958Z,17.62
2022-08-22T02:21:40.526Z,17.56
2022-08-22T02:27:05.010Z,17.66
2022-08-22T02:32:21.538Z,17.79
2022-08-22T02:37:34.843Z,17.78
2022-08-22T02:42:48.462Z,17.83
2022-08-22T02:47:59.942Z,17.84
2022-08-22T02:53:16.386Z,17.86
2022-08-22T02:58:26.460Z,17.84
2022-08-22T03:03:31.655Z,17.85
2022-08-22T03:08:37.948Z,17.88
2022-08-22T03:13:49.283Z,17.87
2022-08-22T03:19:18.723Z,17.83
2022-08-22T03:24:25.870Z,17.85
2022-08-22T03:29:41.485Z,17.88
2022-08-22T03:34:56.154Z,17.87
2022-08-22T03:40:06.985Z,17.86
2022-08-22T03:45:40.557Z,17.87
2022-08-22T03:51:08.897Z,17.79
2022-08-22T03:56:27.911Z,17.74
2022-08-22T04:02:42.527Z,17.78
2022-08-22T04:07:35.219Z,17.74
2022-08-22T04:12:54.917Z,17.70
2022-08-22T04:18:23.947Z,17.71
2022-08-22T04:23:57.806Z,17.70
2022-08-22T04:29:07.976Z,17.60
2022-08-22T04:34:19.606Z,17.60
2022-08-22T04:39:41.685Z,17.69
2022-08-22T04:45:09.551Z,17.67
2022-08-22T04:50:23.497Z,17.68
2022-08-22T04:55:49.471Z,17.73
2022-08-22T05:00:58.100Z,17.73
2022-08-22T05:06:02.843Z,17.78
2022-08-22T05:11:06.887Z,17.71
2022-08-22T05:16:19.955Z,17.94
2022-08-22T05:21:29.464Z,17.96
2022-08-22T05:26:38.504Z,18.05
2022-08-22T05:31:49.387Z,18.07
2022-08-22T05:37:00.153Z,18.13
2022-08-22T05:42:03.508Z,18.29
2022-08-22T05:47:16.978Z,18.38
2022-08-22T05:52:27.365Z,18.51
2022-08-22T05:57:32.390Z,18.57
2022-08-22T06:02:58.608Z,18.65
2022-08-22T06:08:07.443Z,18.72
2022-08-22T06:13:15.069Z,18.67
2022-08-22T06:18:22.577Z,18.83
2022-08-22T06:23:30.418Z,19.01
2022-08-22T06:28:37.945Z,18.85
2022-08-22T06:34:25.041Z,19.29
2022-08-22T06:39:32.167Z,19.40
2022-08-22T06:44:39.415Z,19.41
2022-08-22T06:49:44.372Z,19.63
2022-08-22T06:54:48.466Z,19.78
2022-08-22T06:59:54.596Z,19.69
2022-08-22T07:04:56.115Z,19.90
2022-08-22T07:09:57.777Z,19.93
2022-08-22T07:15:09.681Z,20.22
2022-08-22T07:20:25.889Z,20.29
2022-08-22T07:25:29.173Z,20.24
2022-08-22T07:30:50.110Z,20.47
2022-08-22T07:36:05.828Z,20.46
2022-08-22T07:41:40.104Z,20.61
2022-08-22T07:46:56.439Z,20.79
2022-08-22T07:52:09.514Z,21.00
2022-08-22T07:57:22.371Z,21.16
2022-08-22T08:02:25.377Z,21.44
2022-08-22T08:07:29.107Z,21.81
2022-08-22T08:12:39.295Z,21.72
2022-08-22T08:17:43.008Z,21.76
2022-08-22T08:22:45.906Z,21.89
2022-08-22T08:28:07.627Z,22.05
2022-08-22T08:33:24.942Z,22.18
2022-08-22T08:38:51.213Z,22.34
2022-08-22T08:44:23.768Z,22.67
2022-08-22T08:49:55.794Z,22.95
2022-08-22T09:01:14.013Z,23.28
2022-08-22T09:06:37.179Z,23.50
2022-08-22T09:12:01.542Z,23.73
2022-08-22T09:17:14.930Z,23.69
2022-08-22T09:22:16.303Z,23.77
2022-08-22T09:27:36.469Z,23.84
2022-08-22T09:32:56.458Z,23.84
2022-08-22T09:38:19.587Z,23.93
2022-08-22T09:40:15.240Z,23.28
2022-08-22T09:43:48.808Z,23.84
2022-08-22T09:49:00.130Z,23.98
2022-08-22T09:54:31.596Z,24.02
2022-08-22T09:59:34.300Z,23.96
2022-08-22T10:05:00.730Z,24.09
2022-08-22T10:10:17.695Z,24.10
2022-08-22T10:15:31.862Z,24.20
2022-08-22T10:20:50.353Z,24.20
2022-08-22T10:26:01.644Z,24.28
2022-08-22T10:31:19.907Z,24.30
2022-08-22T10:36:34.147Z,24.27
2022-08-22T10:41:54.544Z,24.29
2022-08-22T10:47:16.743Z,24.50
2022-08-22T10:52:24.651Z,24.54
2022-08-22T10:57:29.062Z,24.57
2022-08-22T11:02:47.520Z,24.84
2022-08-22T11:07:59.515Z,24.91
2022-08-22T11:13:22.749Z,25.00
2022-08-22T11:18:33.682Z,25.07
2022-08-22T11:23:38.502Z,25.38
2022-08-22T11:29:13.460Z,25.38
2022-08-22T11:34:34.390Z,25.33
2022-08-22T11:40:04.242Z,25.40
2022-08-22T11:45:08.230Z,25.54
2022-08-22T11:50:34.527Z,25.66
2022-08-22T11:56:14.337Z,25.69
2022-08-22T12:01:19.585Z,25.97
2022-08-22T12:06:40.375Z,25.95
2022-08-22T12:12:01.647Z,26.24
2022-08-22T12:17:08.860Z,26.76
2022-08-22T12:22:16.509Z,26.29
2022-08-22T12:27:54.103Z,26.46
2022-08-22T12:33:33.125Z,26.61
2022-08-22T12:38:59.608Z,26.39
2022-08-22T12:44:33.729Z,26.57
2022-08-22T12:49:41.504Z,26.79
2022-08-22T12:55:13.825Z,26.95
2022-08-22T13:00:26.920Z,26.69
2022-08-22T13:05:37.895Z,26.61
2022-08-22T13:10:47.819Z,26.79
2022-08-22T13:21:21.957Z,26.95
2022-08-22T13:26:33.045Z,27.13
2022-08-22T13:31:41.072Z,27.02
2022-08-22T13:36:51.696Z,26.94
2022-08-22T13:41:58.015Z,27.11
2022-08-22T13:47:14.607Z,27.08
2022-08-22T13:52:55.612Z,26.97
2022-08-22T13:58:11.319Z,27.09
2022-08-22T14:03:21.259Z,27.12
2022-08-22T14:08:32.904Z,27.04
2022-08-22T14:13:49.011Z,27.46
2022-08-22T14:18:56.317Z,27.35
2022-08-22T14:24:12.656Z,27.43
2022-08-22T14:29:18.666Z,27.53
2022-08-22T14:34:21.026Z,27.51
2022-08-22T14:39:30.441Z,27.68
2022-08-22T14:44:43.866Z,27.67
2022-08-22T14:50:02.651Z,27.90
2022-08-22T14:55:36.348Z,28.01
2022-08-22T15:00:44.337Z,27.81
2022-08-22T15:05:53.924Z,27.67
2022-08-22T15:11:12.824Z,27.68
2022-08-22T15:16:23.091Z,27.69
2022-08-22T15:21:27.805Z,27.76
2022-08-22T15:26:38.389Z,27.81
2022-08-22T15:31:41.637Z,27.70
2022-08-22T15:42:50.455Z,27.87
2022-08-22T15:47:53.693Z,27.85
2022-08-22T15:53:26.150Z,27.71
2022-08-22T15:58:27.655Z,27.68
2022-08-22T16:03:33.026Z,27.54
2022-08-22T16:08:37.298Z,27.43
2022-08-22T16:13:42.416Z,27.53
2022-08-22T16:18:43.878Z,27.63
2022-08-22T16:23:54.303Z,27.34
2022-08-22T16:29:03.177Z,27.65
2022-08-22T16:34:16.579Z,27.67
2022-08-22T16:39:23.880Z,27.60
2022-08-22T16:44:28.133Z,27.55
2022-08-22T16:49:33.562Z,27.54
2022-08-22T16:54:46.666Z,27.45
2022-08-22T17:00:00.505Z,27.49
2022-08-22T17:05:19.965Z,27.40
2022-08-22T17:10:38.530Z,27.38
2022-08-22T17:16:21.201Z,27.27
2022-08-22T17:21:41.470Z,27.33
2022-08-22T17:26:56.327Z,27.34
2022-08-22T17:32:15.170Z,27.24
2022-08-22T17:37:35.947Z,27.16
2022-08-22T17:42:45.470Z,27.03
2022-08-22T17:47:53.900Z,26.93
2022-08-22T17:53:03.021Z,26.88
2022-08-22T17:58:37.404Z,26.75
2022-08-22T18:03:40.232Z,26.60
2022-08-22T18:14:51.653Z,26.50
2022-08-22T18:20:04.697Z,26.46
2022-08-22T18:25:29.259Z,26.19
2022-08-22T18:30:56.288Z,26.13
2022-08-22T18:36:11.675Z,26.09
2022-08-22T18:41:40.060Z,26.02
2022-08-22T18:46:51.684Z,25.82
2022-08-22T18:52:05.538Z,25.74
2022-08-22T18:57:42.669Z,25.59
2022-08-22T19:03:08.716Z,25.57
2022-08-22T19:08:38.939Z,25.44
2022-08-22T19:14:06.272Z,25.37
2022-08-22T19:19:57.731Z,25.34
2022-08-22T19:25:26.107Z,25.27
2022-08-22T19:30:46.122Z,25.21
2022-08-22T19:35:53.683Z,25.06
2022-08-22T19:40:58.218Z,24.97
2022-08-22T19:46:06.070Z,24.96
2022-08-22T19:51:14.677Z,24.86
2022-08-22T19:56:40.617Z,24.87
2022-08-22T20:02:23.467Z,24.77
2022-08-22T20:07:59.100Z,24.54
2022-08-22T20:13:20.293Z,24.49
2022-08-22T20:18:55.587Z,24.33
2022-08-22T20:24:20.905Z,24.27
2022-08-22T20:29:28.784Z,24.08
2022-08-22T20:34:33.854Z,24.08
2022-08-22T20:39:40.042Z,24.14
2022-08-22T20:44:53.777Z,23.96
2022-08-22T20:50:03.675Z,24.00
2022-08-22T20:55:27.315Z,24.08
2022-08-22T21:00:35.737Z,23.99
2022-08-22T21:05:39.011Z,23.91
2022-08-22T21:11:00.562Z,23.93
2022-08-22T21:16:15.717Z,23.76
2022-08-22T21:21:17.933Z,23.76
2022-08-22T21:26:26.357Z,23.77
2022-08-22T21:31:47.727Z,23.66
2022-08-22T21:36:54.873Z,23.47
2022-08-22T21:41:59.269Z,23.37
2022-08-22T21:47:30.940Z,23.42
2022-08-22T21:52:36.684Z,23.28
2022-08-22T21:57:38.238Z,23.25
2022-08-22T22:02:41.807Z,23.29
2022-08-22T22:07:47.097Z,23.23
2022-08-22T22:12:51.242Z,23.23
2022-08-22T22:17:53.636Z,23.15
2022-08-22T22:22:55.800Z,23.13
2022-08-22T22:27:58.550Z,23.11
2022-08-22T22:33:00.093Z,23.03
2022-08-22T22:38:02.065Z,22.95
2022-08-22T22:43:03.947Z,22.92
2022-08-22T22:48:05.903Z,22.74
2022-08-22T22:53:08.155Z,22.79
2022-08-22T22:58:13.429Z,22.85
2022-08-22T23:03:16.083Z,22.64
2022-08-22T23:08:17.987Z,22.62
2022-08-22T23:13:19.406Z,22.54
2022-08-22T23:18:20.880Z,22.59
2022-08-22T23:23:28.187Z,22.42
2022-08-22T23:28:29.573Z,22.25
2022-08-22T23:33:32.729Z,22.31
2022-08-22T23:38:36.027Z,22.05
2022-08-22T23:43:41.627Z,22.11
2022-08-22T23:48:43.715Z,21.95
2022-08-22T23:53:45.409Z,21.84
2022-08-22T23:58:49.108Z,21.82
